createdAt,value
2022-08-22T00:00:20.288Z,2.37
2022-08-22T00:02:45.528Z,2.78
2022-08-22T00:02:53.685Z,2.81
2022-08-22T00:02:55.263Z,2.31
2022-08-22T00:02:55.811Z,2.17
2022-08-22T00:03:08.203Z,2.41
2022-08-22T00:03:16.217Z,2.62
2022-08-22T00:05:32.977Z,2.45
2022-08-22T00:07:59.554Z,2.38
2022-08-22T00:10:26.082Z,2.34
2022-08-22T00:12:52.442Z,2.37
2022-08-22T00:15:42.108Z,2.44
2022-08-22T00:18:05.657Z,2.26
2022-08-22T00:20:32.144Z,2.37
2022-08-22T00:22:58.503Z,2.38
2022-08-22T00:25:26.119Z,2.31
2022-08-22T00:27:52.712Z,2.27
2022-08-22T00:30:19.068Z,2.57
2022-08-22T00:32:45.433Z,2.40
2022-08-22T00:35:11.797Z,2.48
2022-08-22T00:37:38.172Z,2.68
2022-08-22T00:40:04.558Z,2.50
2022-08-22T00:42:32.104Z,2.48
2022-08-22T00:44:58.708Z,2.37
2022-08-22T00:47:25.082Z,2.49
2022-08-22T00:49:51.464Z,2.34
2022-08-22T00:52:17.829Z,2.34
2022-08-22T00:54:44.182Z,2.32
2022-08-22T00:57:10.536Z,2.49
2022-08-22T00:59:36.888Z,2.46
2022-08-22T01:02:03.249Z,2.58
2022-08-22T01:04:29.613Z,2.40
2022-08-22T01:06:55.968Z,2.45
2022-08-22T01:09:22.349Z,2.28
2022-08-22T01:11:48.715Z,2.71
2022-08-22T01:14:15.077Z,2.46
2022-08-22T01:16:41.461Z,2.28
2022-08-22T01:19:07.807Z,2.36
2022-08-22T01:21:34.168Z,2.71
2022-08-22T01:24:00.542Z,2.76
2022-08-22T01:26:28.551Z,2.55
2022-08-22T01:28:54.971Z,2.61
2022-08-22T01:31:21.616Z,2.70
2022-08-22T01:33:48.866Z,2.48
2022-08-22T01:36:16.200Z,2.52
2022-08-22T01:38:42.701Z,2.61
2022-08-22T01:41:10.421Z,2.49
2022-08-22T01:43:58.746Z,2.74
2022-08-22T01:46:24.792Z,2.21
2022-08-22T01:48:51.147Z,2.40
2022-08-22T01:51:17.506Z,2.47
2022-08-22T01:53:43.863Z,2.38
2022-08-22T01:56:10.230Z,2.47
2022-08-22T01:58:36.582Z,2.63
2022-08-22T02:01:03.009Z,2.62
2022-08-22T02:03:29.387Z,2.63
2022-08-22T02:05:55.745Z,2.48
2022-08-22T02:08:22.113Z,2.58
2022-08-22T02:10:48.475Z,2.48
2022-08-22T02:13:14.837Z,2.62
2022-08-22T02:15:41.207Z,2.68
2022-08-22T02:18:10.340Z,2.59
2022-08-22T02:20:36.699Z,2.52
2022-08-22T02:23:03.055Z,2.66
2022-08-22T02:25:29.415Z,2.62
2022-08-22T02:27:55.798Z,2.48
2022-08-22T02:30:22.249Z,2.37
2022-08-22T02:32:48.601Z,2.65
2022-08-22T02:35:14.964Z,2.63
2022-08-22T02:37:41.325Z,2.63
2022-08-22T02:40:07.726Z,2.75
2022-08-22T02:42:34.137Z,2.70
2022-08-22T02:45:00.490Z,2.54
2022-08-22T02:47:26.845Z,2.58
2022-08-22T02:49:53.205Z,2.64
2022-08-22T02:52:22.201Z,2.45
2022-08-22T02:54:48.586Z,2.52
2022-08-22T02:57:14.944Z,2.49
2022-08-22T02:59:41.306Z,2.65
2022-08-22T03:02:07.664Z,2.40
2022-08-22T03:04:34.035Z,2.46
2022-08-22T03:07:00.391Z,2.63
2022-08-22T03:09:26.740Z,2.73
2022-08-22T03:11:53.105Z,2.74
2022-08-22T03:14:19.455Z,2.69
2022-08-22T03:16:45.822Z,2.53
2022-08-22T03:19:18.457Z,2.56
2022-08-22T03:21:45.309Z,2.43
2022-08-22T03:24:11.663Z,2.70
2022-08-22T03:26:38.042Z,2.79
2022-08-22T03:29:04.414Z,2.66
2022-08-22T03:31:30.770Z,2.66
2022-08-22T03:33:57.131Z,2.72
2022-08-22T03:36:23.497Z,2.71
2022-08-22T03:38:49.861Z,2.61
2022-08-22T03:41:16.229Z,2.56
2022-08-22T03:43:42.593Z,2.74
2022-08-22T03:46:08.970Z,3.08
2022-08-22T03:48:35.326Z,3.20
2022-08-22T03:51:03.914Z,2.84
2022-08-22T03:53:30.273Z,3.11
2022-08-22T03:55:56.641Z,3.08
2022-08-22T03:58:28.048Z,2.86
2022-08-22T04:00:55.980Z,2.99
2022-08-22T04:03:23.145Z,2.80
2022-08-22T04:05:49.505Z,2.74
2022-08-22T04:08:24.257Z,3.09
2022-08-22T04:10:52.450Z,2.87
2022-08-22T04:13:18.804Z,2.59
2022-08-22T04:15:51.097Z,2.77
2022-08-22T04:18:17.465Z,2.82
2022-08-22T04:20:44.837Z,2.71
2022-08-22T04:23:11.201Z,2.71
2022-08-22T04:25:37.560Z,2.61
2022-08-22T04:28:03.919Z,2.58
2022-08-22T04:30:30.292Z,2.64
2022-08-22T04:32:56.651Z,2.79
2022-08-22T04:35:23.015Z,2.72
2022-08-22T04:37:49.382Z,2.82
2022-08-22T04:40:15.832Z,2.93
2022-08-22T04:42:42.277Z,2.90
2022-08-22T04:45:08.648Z,3.02
2022-08-22T04:47:35.004Z,2.87
2022-08-22T04:50:01.356Z,3.18
2022-08-22T04:52:29.594Z,3.10
2022-08-22T04:54:56.090Z,3.09
2022-08-22T04:57:22.468Z,3.06
2022-08-22T04:59:48.836Z,3.05
2022-08-22T05:02:17.533Z,5.28
2022-08-22T05:04:43.885Z,7.47
2022-08-22T05:07:10.255Z,8.25
2022-08-22T05:09:36.628Z,14.46
2022-08-22T05:12:02.993Z,15.72
2022-08-22T05:14:29.354Z,13.92
2022-08-22T05:16:55.724Z,13.31
2022-08-22T05:19:29.686Z,13.46
2022-08-22T05:21:58.210Z,13.38
2022-08-22T05:24:28.089Z,13.48
2022-08-22T05:26:54.620Z,13.29
2022-08-22T05:29:20.995Z,13.00
2022-08-22T05:31:47.360Z,11.73
2022-08-22T05:34:13.720Z,11.77
2022-08-22T05:36:40.094Z,11.72
2022-08-22T05:39:06.467Z,11.82
2022-08-22T05:41:32.834Z,10.94
2022-08-22T05:43:59.196Z,11.11
2022-08-22T05:46:27.360Z,10.60
2022-08-22T05:48:53.765Z,10.71
2022-08-22T05:51:20.128Z,10.22
2022-08-22T05:53:46.488Z,9.76
2022-08-22T05:56:12.847Z,9.79
2022-08-22T05:58:39.227Z,9.39
2022-08-22T06:01:05.595Z,9.13
2022-08-22T06:03:31.960Z,8.99
2022-08-22T06:05:58.343Z,8.88
2022-08-22T06:08:24.714Z,8.74
2022-08-22T06:10:51.067Z,8.25
2022-08-22T06:13:17.419Z,8.56
2022-08-22T06:15:50.897Z,8.62
2022-08-22T06:18:17.269Z,7.89
2022-08-22T06:20:43.636Z,8.34
2022-08-22T06:23:09.992Z,8.11
2022-08-22T06:25:36.355Z,8.45
2022-08-22T06:28:02.716Z,7.71
2022-08-22T06:30:29.071Z,7.66
2022-08-22T06:32:59.407Z,7.95
2022-08-22T06:35:26.846Z,7.15
2022-08-22T06:37:53.237Z,7.38
2022-08-22T06:40:19.741Z,7.36
2022-08-22T06:42:46.191Z,6.97
2022-08-22T06:45:12.560Z,6.85
2022-08-22T06:47:38.923Z,6.62
2022-08-22T06:50:05.800Z,6.81
2022-08-22T06:52:32.159Z,6.81
2022-08-22T06:54:58.525Z,6.46
2022-08-22T06:57:25.167Z,6.62
2022-08-22T06:59:51.531Z,6.88
2022-08-22T07:02:17.891Z,6.25
2022-08-22T07:04:44.908Z,6.26
2022-08-22T07:07:11.255Z,5.88
2022-08-22T07:09:37.609Z,5.98
2022-08-22T07:12:03.975Z,5.96
2022-08-22T07:14:30.335Z,5.91
2022-08-22T07:16:56.691Z,5.97
2022-08-22T07:19:23.041Z,6.14
2022-08-22T07:21:49.406Z,6.05
2022-08-22T07:24:15.774Z,5.70
2022-08-22T07:26:42.147Z,5.72
2022-08-22T07:29:11.479Z,5.79
2022-08-22T07:31:37.976Z,5.79
2022-08-22T07:34:04.773Z,5.75
2022-08-22T07:36:31.906Z,5.61
2022-08-22T07:38:58.526Z,5.60
2022-08-22T07:41:24.908Z,5.78
2022-08-22T07:43:51.267Z,5.23
2022-08-22T07:46:17.621Z,5.43
2022-08-22T07:49:05.876Z,5.19
2022-08-22T07:51:30.323Z,5.29
2022-08-22T07:54:00.361Z,5.00
2022-08-22T07:56:27.221Z,5.10
2022-08-22T07:58:53.604Z,5.09
2022-08-22T08:01:20.034Z,4.86
2022-08-22T08:03:46.481Z,4.74
2022-08-22T08:06:12.840Z,5.17
2022-08-22T08:08:39.192Z,4.97
2022-08-22T08:11:05.558Z,4.70
2022-08-22T08:13:31.928Z,4.64
2022-08-22T08:15:58.286Z,4.62
2022-08-22T08:18:24.636Z,4.44
2022-08-22T08:20:51.004Z,4.40
2022-08-22T08:23:17.378Z,4.57
2022-08-22T08:25:53.754Z,4.60
2022-08-22T08:28:20.257Z,4.66
2022-08-22T08:30:47.928Z,4.59
2022-08-22T08:33:24.627Z,4.34
2022-08-22T08:36:02.265Z,4.22
2022-08-22T08:38:30.052Z,4.48
2022-08-22T08:40:56.410Z,4.21
2022-08-22T08:43:22.784Z,4.16
2022-08-22T08:45:49.137Z,4.21
2022-08-22T08:48:15.497Z,4.22
2022-08-22T08:50:43.295Z,4.46
2022-08-22T08:53:09.718Z,4.15
2022-08-22T08:55:36.957Z,4.34
2022-08-22T08:58:07.058Z,4.44
2022-08-22T09:00:33.576Z,3.87
2022-08-22T09:02:59.931Z,3.71
2022-08-22T09:05:32.807Z,4.06
2022-08-22T09:07:59.289Z,3.79
2022-08-22T09:10:28.729Z,3.99
2022-08-22T09:13:11.326Z,3.97
2022-08-22T09:15:39.014Z,4.18
2022-08-22T09:18:05.407Z,3.96
2022-08-22T09:20:32.901Z,3.80
2022-08-22T09:22:59.256Z,3.82
2022-08-22T09:25:25.626Z,3.78
2022-08-22T09:27:51.986Z,3.77
2022-08-22T09:30:18.341Z,3.75
2022-08-22T09:32:54.167Z,3.70
2022-08-22T09:35:20.519Z,3.68
2022-08-22T09:37:48.892Z,3.89
2022-08-22T09:40:21.266Z,3.68
2022-08-22T09:42:51.197Z,3.73
2022-08-22T09:45:18.208Z,3.58
2022-08-22T09:47:44.571Z,3.79
2022-08-22T09:50:10.922Z,3.80
2022-08-22T09:52:37.305Z,3.60
2022-08-22T09:55:03.692Z,3.81
2022-08-22T09:57:34.549Z,3.83
2022-08-22T10:00:00.908Z,3.62
2022-08-22T10:02:28.505Z,3.83
2022-08-22T10:04:56.467Z,3.66
2022-08-22T10:07:24.578Z,3.64
2022-08-22T10:09:53.584Z,3.73
2022-08-22T10:12:24.801Z,3.48
2022-08-22T10:14:51.357Z,3.76
2022-08-22T10:17:21.948Z,3.73
2022-08-22T10:19:48.537Z,3.82
2022-08-22T10:22:15.163Z,3.43
2022-08-22T10:24:44.020Z,3.52
2022-08-22T10:27:10.539Z,3.35
2022-08-22T10:29:36.911Z,3.34
2022-08-22T10:32:10.815Z,3.55
2022-08-22T10:34:41.016Z,3.63
2022-08-22T10:37:08.644Z,3.41
2022-08-22T10:39:36.713Z,3.59
2022-08-22T10:42:03.091Z,3.56
2022-08-22T10:44:29.479Z,3.21
2022-08-22T10:46:56.340Z,3.40
2022-08-22T10:49:28.749Z,3.61
2022-08-22T10:51:56.380Z,3.34
2022-08-22T10:54:24.754Z,3.22
2022-08-22T10:56:51.112Z,3.59
2022-08-22T10:59:18.936Z,3.19
2022-08-22T11:01:49.185Z,3.49
2022-08-22T11:04:15.563Z,3.46
2022-08-22T11:06:41.922Z,3.52
2022-08-22T11:09:11.148Z,3.16
2022-08-22T11:11:37.645Z,3.24
2022-08-22T11:14:04.357Z,3.17
2022-08-22T11:16:30.734Z,3.30
2022-08-22T11:19:14.610Z,3.30
2022-08-22T11:21:41.781Z,3.31
2022-08-22T11:24:08.171Z,3.43
2022-08-22T11:26:47.245Z,3.30
2022-08-22T11:29:14.549Z,3.25
2022-08-22T11:31:51.313Z,3.33
2022-08-22T11:34:20.554Z,3.10
2022-08-22T11:36:47.052Z,3.30
2022-08-22T11:39:18.362Z,3.22
2022-08-22T11:41:45.284Z,3.23
2022-08-22T11:44:18.861Z,3.25
2022-08-22T11:46:45.221Z,2.94
2022-08-22T11:49:11.584Z,2.96
2022-08-22T11:51:37.944Z,3.22
2022-08-22T11:54:05.312Z,3.21
2022-08-22T11:56:31.674Z,3.30
2022-08-22T11:58:58.048Z,2.97
2022-08-22T12:01:24.405Z,3.06
2022-08-22T12:03:53.985Z,3.09
2022-08-22T12:06:24.885Z,3.04
2022-08-22T12:08:51.238Z,3.05
2022-08-22T12:11:17.595Z,3.10
2022-08-22T12:13:44.207Z,3.23
2022-08-22T12:16:10.590Z,3.38
2022-08-22T12:18:37.387Z,3.17
2022-08-22T12:21:03.744Z,3.13
2022-08-22T12:23:48.991Z,2.95
2022-08-22T12:26:16.239Z,3.23
2022-08-22T12:28:42.780Z,2.96
2022-08-22T12:31:09.131Z,3.26
2022-08-22T12:33:36.136Z,3.02
2022-08-22T12:36:02.645Z,3.21
2022-08-22T12:38:34.766Z,3.23
2022-08-22T12:41:03.743Z,3.08
2022-08-22T12:43:35.346Z,3.03
2022-08-22T12:46:12.924Z,2.96
2022-08-22T12:48:39.817Z,3.04
2022-08-22T12:51:17.720Z,3.15
2022-08-22T12:53:44.738Z,2.90
2022-08-22T12:56:11.369Z,2.96
2022-08-22T12:58:37.722Z,2.98
2022-08-22T13:01:04.653Z,3.11
2022-08-22T13:03:32.800Z,3.00
2022-08-22T13:06:00.227Z,3.21
2022-08-22T13:08:26.977Z,2.88
2022-08-22T13:10:55.581Z,3.03
2022-08-22T13:13:23.634Z,3.11
2022-08-22T13:15:58.170Z,3.09
2022-08-22T13:18:30.470Z,3.03
2022-08-22T13:20:57.298Z,2.93
2022-08-22T13:23:24.477Z,2.94
2022-08-22T13:25:51.914Z,2.89
2022-08-22T13:28:18.259Z,3.08
2022-08-22T13:30:44.612Z,2.95
2022-08-22T13:33:14.606Z,2.91
2022-08-22T13:35:44.617Z,2.89
2022-08-22T13:38:23.808Z,2.86
2022-08-22T13:40:52.153Z,2.95
2022-08-22T13:43:18.548Z,2.80
2022-08-22T13:45:44.915Z,2.77
2022-08-22T13:48:11.387Z,2.97
2022-08-22T13:50:53.338Z,3.18
2022-08-22T13:53:20.355Z,2.75
2022-08-22T13:55:48.989Z,2.88
2022-08-22T13:58:15.661Z,3.00
2022-08-22T14:00:48.659Z,2.88
2022-08-22T14:03:23.785Z,2.92
2022-08-22T14:05:50.137Z,2.85
2022-08-22T14:08:19.629Z,2.84
2022-08-22T14:10:45.983Z,2.73
2022-08-22T14:13:21.411Z,2.82
2022-08-22T14:15:47.781Z,2.94
2022-08-22T14:18:18.494Z,2.87
2022-08-22T14:20:45.129Z,2.63
2022-08-22T14:23:13.955Z,2.67
2022-08-22T14:25:40.333Z,2.66
2022-08-22T14:28:09.502Z,2.87
2022-08-22T14:30:36.033Z,2.69
2022-08-22T14:33:02.522Z,2.60
2022-08-22T14:35:34.787Z,2.65
2022-08-22T14:38:03.765Z,2.64
2022-08-22T14:40:43.453Z,2.84
2022-08-22T14:43:09.985Z,2.82
2022-08-22T14:45:36.901Z,2.78
2022-08-22T14:48:29.711Z,2.82
2022-08-22T14:50:49.658Z,2.75
2022-08-22T14:53:19.522Z,2.88
2022-08-22T14:55:48.788Z,2.73
2022-08-22T14:58:27.743Z,2.61
2022-08-22T15:00:54.229Z,2.76
2022-08-22T15:03:20.596Z,3.04
2022-08-22T15:05:46.943Z,2.77
2022-08-22T15:08:13.304Z,2.74
2022-08-22T15:10:42.324Z,2.92
2022-08-22T15:13:08.851Z,2.56
2022-08-22T15:15:49.356Z,2.80
2022-08-22T15:18:20.035Z,2.78
2022-08-22T15:20:52.139Z,2.87
2022-08-22T15:23:18.752Z,2.82
2022-08-22T15:25:46.902Z,2.66
2022-08-22T15:28:14.357Z,2.50
2022-08-22T15:30:46.632Z,2.78
2022-08-22T15:33:14.178Z,2.69
2022-08-22T15:35:40.532Z,2.62
2022-08-22T15:38:06.887Z,2.59
2022-08-22T15:40:33.240Z,2.56
2022-08-22T15:42:59.878Z,2.67
2022-08-22T15:45:26.888Z,2.73
2022-08-22T15:47:53.476Z,2.93
2022-08-22T15:50:19.842Z,2.76
2022-08-22T15:52:46.546Z,2.67
2022-08-22T15:55:31.373Z,2.92
2022-08-22T15:58:02.855Z,2.80
2022-08-22T16:00:29.287Z,2.75
2022-08-22T16:02:55.707Z,2.87
2022-08-22T16:05:22.083Z,2.51
2022-08-22T16:07:48.446Z,2.79
2022-08-22T16:10:14.805Z,2.58
2022-08-22T16:12:41.169Z,2.69
2022-08-22T16:15:07.527Z,2.62
2022-08-22T16:17:33.880Z,2.62
2022-08-22T16:20:00.347Z,2.83
2022-08-22T16:22:26.763Z,2.98
2022-08-22T16:24:53.128Z,2.91
2022-08-22T16:27:19.735Z,2.73
2022-08-22T16:29:46.091Z,2.81
2022-08-22T16:32:12.476Z,3.02
2022-08-22T16:34:38.850Z,2.86
2022-08-22T16:37:05.215Z,2.74
2022-08-22T16:39:31.584Z,2.65
2022-08-22T16:41:57.942Z,2.92
2022-08-22T16:44:24.313Z,2.91
2022-08-22T16:46:50.662Z,2.99
2022-08-22T16:49:17.038Z,2.76
2022-08-22T16:51:43.411Z,2.62
2022-08-22T16:54:09.771Z,2.86
2022-08-22T16:56:36.144Z,2.81
2022-08-22T16:59:19.309Z,2.81
2022-08-22T17:01:48.968Z,2.77
2022-08-22T17:04:15.377Z,3.08
2022-08-22T17:06:41.732Z,3.12
2022-08-22T17:09:08.079Z,2.98
2022-08-22T17:11:34.439Z,2.91
2022-08-22T17:14:00.853Z,2.93
2022-08-22T17:16:27.240Z,2.82
2022-08-22T17:18:53.604Z,2.84
2022-08-22T17:21:25.320Z,3.06
2022-08-22T17:23:52.115Z,3.09
2022-08-22T17:26:18.520Z,3.11
2022-08-22T17:28:44.921Z,2.90
2022-08-22T17:31:11.451Z,3.11
2022-08-22T17:33:37.823Z,3.05
2022-08-22T17:36:04.173Z,3.03
2022-08-22T17:38:31.512Z,3.15
2022-08-22T17:40:57.868Z,2.90
2022-08-22T17:43:24.220Z,2.98
2022-08-22T17:45:50.603Z,3.14
2022-08-22T17:48:16.952Z,3.16
2022-08-22T17:50:43.323Z,2.99
2022-08-22T17:53:09.694Z,3.13
2022-08-22T17:55:36.048Z,2.88
2022-08-22T17:58:03.335Z,3.27
2022-08-22T18:00:29.712Z,3.22
2022-08-22T18:02:56.151Z,3.01
2022-08-22T18:05:22.574Z,3.16
2022-08-22T18:07:48.941Z,3.21
2022-08-22T18:10:15.301Z,3.15
2022-08-22T18:12:41.668Z,3.20
2022-08-22T18:15:08.030Z,2.96
2022-08-22T18:17:34.409Z,3.08
2022-08-22T18:20:00.774Z,3.19
2022-08-22T18:22:27.130Z,3.14
2022-08-22T18:24:53.499Z,3.38
2022-08-22T18:27:30.069Z,2.95
2022-08-22T18:30:04.119Z,3.08
2022-08-22T18:32:30.476Z,3.05
2022-08-22T18:34:59.803Z,3.23
2022-08-22T18:37:29.108Z,3.97
2022-08-22T18:39:55.809Z,3.93
2022-08-22T18:42:22.205Z,5.99
2022-08-22T18:44:48.564Z,7.78
2022-08-22T18:47:14.920Z,8.18
2022-08-22T18:49:41.278Z,7.88
2022-08-22T18:52:07.713Z,7.44
2022-08-22T18:54:34.097Z,7.06
2022-08-22T18:57:00.448Z,6.67
2022-08-22T18:59:26.823Z,6.21
2022-08-22T19:01:53.843Z,6.15
2022-08-22T19:04:20.603Z,6.31
2022-08-22T19:06:46.989Z,6.58
2022-08-22T19:09:15.068Z,6.44
2022-08-22T19:11:42.258Z,6.21
2022-08-22T19:14:08.624Z,6.58
2022-08-22T19:16:35.000Z,6.00
2022-08-22T19:19:03.031Z,5.88
2022-08-22T19:21:29.409Z,5.97
2022-08-22T19:23:55.785Z,6.23
2022-08-22T19:26:22.149Z,5.93
2022-08-22T19:28:48.517Z,5.88
2022-08-22T19:31:16.565Z,5.69
2022-08-22T19:33:43.106Z,6.15
2022-08-22T19:36:09.469Z,5.75
2022-08-22T19:38:35.840Z,5.89
2022-08-22T19:41:02.214Z,5.50
2022-08-22T19:43:28.671Z,5.45
2022-08-22T19:45:55.030Z,5.55
2022-08-22T19:48:21.402Z,5.70
2022-08-22T19:50:47.794Z,5.40
2022-08-22T19:53:14.163Z,5.51
2022-08-22T19:55:40.516Z,5.65
2022-08-22T19:58:06.892Z,5.29
2022-08-22T20:00:33.254Z,5.14
2022-08-22T20:02:59.701Z,5.30
2022-08-22T20:05:26.175Z,5.60
2022-08-22T20:07:52.532Z,5.31
2022-08-22T20:10:18.892Z,5.43
2022-08-22T20:12:45.251Z,5.30
2022-08-22T20:15:11.614Z,5.01
2022-08-22T20:17:37.992Z,4.88
2022-08-22T20:20:19.677Z,4.68
2022-08-22T20:22:52.730Z,4.95
2022-08-22T20:25:42.320Z,5.18
2022-08-22T20:28:10.161Z,5.08
2022-08-22T20:30:36.538Z,5.11
2022-08-22T20:33:02.904Z,5.17
2022-08-22T20:35:29.265Z,5.15
2022-08-22T20:38:10.895Z,4.94
2022-08-22T20:40:55.428Z,4.81
2022-08-22T20:43:23.222Z,4.79
2022-08-22T20:45:49.589Z,4.85
2022-08-22T20:48:16.203Z,5.10
2022-08-22T20:50:42.564Z,4.80
2022-08-22T20:53:09.650Z,4.62
2022-08-22T20:55:36.254Z,4.68
2022-08-22T20:58:02.643Z,5.21
2022-08-22T21:00:29.017Z,4.87
2022-08-22T21:02:55.396Z,4.94
2022-08-22T21:05:21.761Z,5.08
2022-08-22T21:07:48.138Z,4.76
2022-08-22T21:10:16.737Z,4.99
2022-08-22T21:12:46.600Z,4.82
2022-08-22T21:15:12.966Z,4.74
2022-08-22T21:17:39.592Z,4.74
2022-08-22T21:20:06.022Z,4.74
2022-08-22T21:22:32.378Z,4.44
2022-08-22T21:24:58.741Z,4.56
2022-08-22T21:27:25.097Z,4.55
2022-08-22T21:29:51.449Z,4.18
2022-08-22T21:32:17.805Z,4.53
2022-08-22T21:34:44.176Z,4.48
2022-08-22T21:37:10.607Z,4.51
2022-08-22T21:39:36.990Z,4.44
2022-08-22T21:42:03.350Z,4.47
2022-08-22T21:44:29.764Z,4.54
2022-08-22T21:46:56.137Z,4.62
2022-08-22T21:49:22.513Z,4.48
2022-08-22T21:51:48.885Z,4.16
2022-08-22T21:54:18.217Z,4.32
2022-08-22T21:56:45.289Z,4.45
2022-08-22T21:59:12.153Z,4.51
2022-08-22T22:01:38.756Z,4.35
2022-08-22T22:04:09.148Z,4.48
2022-08-22T22:06:35.520Z,4.58
2022-08-22T22:09:01.877Z,4.63
2022-08-22T22:11:28.224Z,4.36
2022-08-22T22:13:54.601Z,4.68
2022-08-22T22:16:20.963Z,4.51
2022-08-22T22:18:47.339Z,4.40
2022-08-22T22:21:13.720Z,4.10
2022-08-22T22:23:40.085Z,4.41
2022-08-22T22:26:06.456Z,4.16
2022-08-22T22:28:32.817Z,4.27
2022-08-22T22:30:59.193Z,4.35
2022-08-22T22:33:25.562Z,3.96
2022-08-22T22:35:51.931Z,4.20
2022-08-22T22:38:23.278Z,4.06
2022-08-22T22:40:50.424Z,4.24
2022-08-22T22:43:16.789Z,4.34
2022-08-22T22:45:43.148Z,4.00
2022-08-22T22:48:09.511Z,4.02
2022-08-22T22:50:35.856Z,4.10
2022-08-22T22:53:03.411Z,3.90
2022-08-22T22:55:29.764Z,4.13
2022-08-22T22:57:58.923Z,3.96
2022-08-22T23:00:25.867Z,3.86
2022-08-22T23:02:57.418Z,3.58
2022-08-22T23:05:23.776Z,3.53
2022-08-22T23:07:50.135Z,3.52
2022-08-22T23:10:21.397Z,3.96
2022-08-22T23:12:48.369Z,3.71
2022-08-22T23:15:14.736Z,3.65
2022-08-22T23:17:41.090Z,3.70
2022-08-22T23:20:07.448Z,3.96
2022-08-22T23:22:33.804Z,3.73
2022-08-22T23:25:00.156Z,3.79
2022-08-22T23:27:26.525Z,3.75
2022-08-22T23:29:52.898Z,3.39
2022-08-22T23:32:19.258Z,3.48
2022-08-22T23:34:45.627Z,3.36
2022-08-22T23:37:11.976Z,3.62
2022-08-22T23:39:38.346Z,3.73
2022-08-22T23:42:04.724Z,3.76
2022-08-22T23:44:31.089Z,3.45
2022-08-22T23:46:57.468Z,3.60
2022-08-22T23:49:23.840Z,3.43
2022-08-22T23:51:50.206Z,3.63
2022-08-22T23:54:16.562Z,3.59
2022-08-22T23:56:42.930Z,3.49
2022-08-22T23:59:09.285Z,3.27
